Freedom of the Seas — C6UZ7 — position and weather

sailwx.info

Track history (hours):
 
Tides and Currents Weather Stations Pressure Air Temp Water Temp Dewpoint Dewpoint Depression Visibility Wind Speed Wind Dir Waves Ship Positions

Freedom of the Seas

Last reported at 2017-Aug-20 03:16 UTC. Time now 2017-Aug-20 20:49 UTC.
Position N 41°21' E 002°10'.

Length 339 m; draft 9 m.

Type: Passenger vessel. MMSI: 309906000.

Date/timePositionNaut miles runAvg speedWind from/ knotsBaromVisibWave heightAir tempDewpointWater temp
2017-Aug-20 03:16N 41°21' E 002°10'8 7.3
2017-Aug-20 02:12N 41°16' E 002°19'312.6
2017-Aug-20 01:59N 41°16' E 002°22'612.7
2017-Aug-20 01:29N 41°16' E 002°31'613.0
2017-Aug-20 01:00N 41°16' E 002°39'713.2
2017-Aug-20 00:29N 41°17' E 002°48'1117.7
2017-Aug-19 23:52N 41°16' E 003°03'918.2
2017-Aug-19 23:22N 41°17' E 003°15'817.9
2017-Aug-19 22:54N 41°17' E 003°26'717.6
2017-Aug-19 22:30N 41°17' E 003°35'8116.7
2017-Aug-19 17:40N 41°17' E 005°22'415.7
2017-Aug-19 17:26N 41°17' E 005°27'715.7
2017-Aug-19 17:00N 41°17' E 005°36'815.9
2017-Aug-19 16:30N 41°17' E 005°47'1516.2
2017-Aug-19 15:34N 41°17' E 006°07'116.4
2017-Aug-19 15:30N 41°17' E 006°09'816.6
2017-Aug-19 15:00N 41°17' E 006°19'1716.5
2017-Aug-19 14:00N 41°17' E 006°42'816.4
2017-Aug-19 13:30N 41°17' E 006°52'816.5
2017-Aug-19 13:00N 41°17' E 007°04'1516.0
2017-Aug-19 12:03N 41°17' E 007°24'316.2
2017-Aug-19 11:51N 41°18' E 007°28'9116.5
2017-Aug-19 06:20N 41°22' E 009°30'516.9
2017-Aug-19 06:01N 41°22' E 009°37'1216.4
2017-Aug-19 05:16N 41°21' E 009°53'516.8
2017-Aug-19 05:00N 41°20' E 009°59'917.5
2017-Aug-19 04:30N 41°18' E 010°10'917.6
2017-Aug-19 04:00N 41°17' E 010°22'7617.6
2017-Aug-18 23:42N 40°53' E 011°57'817.1
2017-Aug-18 23:12N 40°50' E 012°08'3217.3
2017-Aug-18 21:20N 40°39' E 012°48'1717.0
2017-Aug-18 20:20N 40°34' E 013°09'617.0
2017-Aug-18 20:01N 40°34' E 013°16'816.9
2017-Aug-18 19:31N 40°34' E 013°28'917.1
2017-Aug-18 19:01N 40°34' E 013°39'917.0
2017-Aug-18 18:28N 40°34' E 013°51'816.6
2017-Aug-18 18:01N 40°36' E 014°01'917.1
2017-Aug-18 17:31N 40°42' E 014°09'816.5
2017-Aug-18 17:00N 40°48' E 014°16'2 4.1
2017-Aug-18 16:28N 40°50' E 014°16'0 0.0
2017-Aug-18 15:55N 40°50' E 014°16'0 0.0
2017-Aug-18 15:28N 40°50' E 014°16'0 0.0
2017-Aug-18 14:52N 40°50' E 014°16'0 0.0
2017-Aug-18 13:58N 40°50' E 014°16'0 0.0
2017-Aug-18 13:25N 40°50' E 014°16'0 0.0
2017-Aug-18 12:58N 40°50' E 014°16'0 0.0
2017-Aug-18 12:25N 40°50' E 014°16'0 0.0
2017-Aug-18 11:58N 40°50' E 014°16'0 0.0
2017-Aug-18 11:28N 40°50' E 014°16'0 0.0
2017-Aug-18 10:49N 40°50' E 014°16'0 0.0
2017-Aug-18 10:28N 40°50' E 014°16'0 0.0
2017-Aug-18 09:58N 40°50' E 014°16'0 0.0
2017-Aug-18 09:28N 40°50' E 014°16'0 0.0
2017-Aug-18 08:58N 40°50' E 014°16'0 0.0
2017-Aug-18 08:28N 40°50' E 014°16'0 0.0
2017-Aug-18 07:58N 40°50' E 014°16'0 0.0
2017-Aug-18 07:28N 40°50' E 014°16'0 0.0
2017-Aug-18 06:58N 40°50' E 014°16'0 0.0
2017-Aug-18 06:28N 40°50' E 014°16'0 0.0
2017-Aug-18 05:58N 40°50' E 014°16'0 0.0
2017-Aug-18 05:28N 40°50' E 014°16'0 0.0
2017-Aug-18 04:58N 40°50' E 014°16'0 0.3
2017-Aug-18 04:28N 40°50' E 014°16'1 2.6
2017-Aug-18 04:00N 40°49' E 014°17'712.8
2017-Aug-18 03:28N 40°44' E 014°13'714.0
2017-Aug-18 03:00N 40°39' E 014°07'713.1
2017-Aug-18 02:30N 40°36' E 013°59'713.7
2017-Aug-18 02:00N 40°36' E 013°50'713.8
2017-Aug-18 01:30N 40°38' E 013°41'713.7
2017-Aug-18 01:00N 40°39' E 013°32'714.4
2017-Aug-18 00:30N 40°40' E 013°23'917.7
2017-Aug-18 00:00N 40°42' E 013°12'917.6
2017-Aug-17 23:30N 40°43' E 013°00'7517.3
2017-Aug-17 19:09N 41°37' E 011°50'417.5
2017-Aug-17 18:54N 41°41' E 011°46'46 2.6
2017-Aug-17 01:24N 42°09' E 010°57'717.4
2017-Aug-17 01:00N 42°12' E 010°49'1517.6
2017-Aug-17 00:11N 42°21' E 010°33'319.2
2017-Aug-17 00:00N 42°23' E 010°29'1019.1
2017-Aug-16 23:30N 42°29' E 010°20'1519.3
2017-Aug-16 22:45N 42°40' E 010°07'519.6
2017-Aug-16 22:30N 42°43' E 010°01'1119.1
2017-Aug-16 21:54N 42°49' E 009°48'918.6
2017-Aug-16 21:25N 42°54' E 009°38'1018.9
2017-Aug-16 20:54N 43°04' E 009°35'819.6
2017-Aug-16 20:30N 43°11' E 009°32'1019.1
2017-Aug-16 20:00N 43°21' E 009°31'919.4
2017-Aug-16 19:30N 43°30' E 009°33'1019.3
2017-Aug-16 19:00N 43°39' E 009°39'1019.5
2017-Aug-16 18:30N 43°47' E 009°46'1019.6
2017-Aug-16 18:00N 43°56' E 009°52'815.9
2017-Aug-16 17:31N 44°04' E 009°51'3 5.1
2017-Aug-16 16:58N 44°06' E 009°50'0 0.0
2017-Aug-16 16:28N 44°06' E 009°50'0 0.0
2017-Aug-16 15:58N 44°06' E 009°50'0 0.0
2017-Aug-16 15:28N 44°06' E 009°50'0 0.0
2017-Aug-16 14:58N 44°06' E 009°50'0 0.0
2017-Aug-16 14:28N 44°06' E 009°50'0 0.0
2017-Aug-16 13:55N 44°06' E 009°50'0 0.0
2017-Aug-16 13:28N 44°06' E 009°50'0 0.0
2017-Aug-16 12:58N 44°06' E 009°50'0 0.0
2017-Aug-16 12:28N 44°06' E 009°50'0 0.0
2017-Aug-16 11:58N 44°06' E 009°50'0 0.0
2017-Aug-16 11:22N 44°06' E 009°50'0 0.0
2017-Aug-16 10:58N 44°06' E 009°50'0 0.0
2017-Aug-16 10:25N 44°06' E 009°50'0 0.0
2017-Aug-16 09:58N 44°06' E 009°50'0 0.0
2017-Aug-16 09:28N 44°06' E 009°50'0 0.0
2017-Aug-16 08:58N 44°06' E 009°50'0 0.0
2017-Aug-16 08:28N 44°06' E 009°50'0 0.0
2017-Aug-16 07:58N 44°06' E 009°50'0 0.0
2017-Aug-16 07:28N 44°06' E 009°50'0 0.0
2017-Aug-16 06:58N 44°06' E 009°50'0 0.0
2017-Aug-16 06:28N 44°06' E 009°50'0 0.0
2017-Aug-16 05:58N 44°06' E 009°50'0 0.0
2017-Aug-16 05:28N 44°06' E 009°50'0 0.0
2017-Aug-16 04:58N 44°06' E 009°50'0 1.0
2017-Aug-16 04:30N 44°06' E 009°51'3 5.6
2017-Aug-16 04:00N 44°03' E 009°52'4 8.7
2017-Aug-16 03:30N 43°60' E 009°55'510.5
2017-Aug-16 03:00N 43°57' E 009°48'510.6
2017-Aug-16 02:30N 43°56' E 009°41'610.7
2017-Aug-16 01:59N 43°55' E 009°34'510.6
2017-Aug-16 01:30N 43°54' E 009°27'510.7
2017-Aug-16 01:00N 43°55' E 009°19'510.9
2017-Aug-16 00:30N 43°54' E 009°12'611.0
2017-Aug-16 00:00N 43°52' E 009°05'510.8
2017-Aug-15 23:30N 43°51' E 008°57'510.9
2017-Aug-15 23:00N 43°50' E 008°50'611.1
2017-Aug-15 22:30N 43°49' E 008°42'611.4
2017-Aug-15 22:00N 43°48' E 008°35'611.3
2017-Aug-15 21:30N 43°47' E 008°27'611.1
2017-Aug-15 21:00N 43°46' E 008°19'611.1
2017-Aug-15 20:30N 43°45' E 008°12'611.1
2017-Aug-15 20:00N 43°44' E 008°04'611.1
2017-Aug-15 19:30N 43°43' E 007°57'611.1
2017-Aug-15 19:00N 43°42' E 007°49'611.3
2017-Aug-15 18:30N 43°41' E 007°41'611.2
2017-Aug-15 18:00N 43°40' E 007°34'611.6
2017-Aug-15 17:30N 43°39' E 007°26'5 0.4
2017-Aug-15 04:40N 43°41' E 007°19'1 7.6
2017-Aug-15 04:30N 43°39' E 007°18'710.6
2017-Aug-15 03:52N 43°33' E 007°17'412.0
2017-Aug-15 03:30N 43°29' E 007°16'612.0
2017-Aug-15 03:00N 43°23' E 007°14'611.3
2017-Aug-15 02:30N 43°17' E 007°13'611.4
2017-Aug-15 02:00N 43°12' E 007°10'611.9
2017-Aug-15 01:30N 43°06' E 007°07'611.2
2017-Aug-15 01:00N 43°01' E 007°03'810.8
2017-Aug-15 00:14N 42°56' E 006°55'310.8
2017-Aug-14 23:57N 42°54' E 006°51'511.3
2017-Aug-14 23:30N 42°52' E 006°45'711.1
2017-Aug-14 22:53N 42°50' E 006°36'1311.3
2017-Aug-14 21:45N 42°51' E 006°19'311.2
2017-Aug-14 21:30N 42°52' E 006°15'1311.6
2017-Aug-14 20:24N 42°54' E 005°58'2711.6
2017-Aug-14 18:06N 43°03' E 005°24'111.5
2017-Aug-14 17:59N 43°04' E 005°22'511.5
2017-Aug-14 17:31N 43°06' E 005°15'510.4
2017-Aug-14 17:01N 43°10' E 005°11'612.1
2017-Aug-14 16:31N 43°16' E 005°13'611.8
2017-Aug-14 16:00N 43°21' E 005°18'1 0.1
2017-Aug-14 06:17N 43°21' E 005°19'1 4.1
2017-Aug-14 06:01N 43°21' E 005°18'610.8
2017-Aug-14 05:30N 43°17' E 005°13'714.2
2017-Aug-14 05:00N 43°11' E 005°07'714.1
2017-Aug-14 04:30N 43°06' E 005°01'713.8
2017-Aug-14 04:00N 43°00' E 004°55'713.8
2017-Aug-14 03:31N 42°55' E 004°49'713.6
2017-Aug-14 03:00N 42°50' E 004°42'713.8
2017-Aug-14 02:31N 42°46' E 004°36'713.7
2017-Aug-14 02:00N 42°41' E 004°29'713.4
2017-Aug-14 01:30N 42°36' E 004°23'917.4
2017-Aug-14 01:01N 42°29' E 004°16'917.7
2017-Aug-14 00:30N 42°22' E 004°08'917.9
2017-Aug-14 00:00N 42°15' E 004°00'917.7
2017-Aug-13 23:30N 42°09' E 003°52'917.3
2017-Aug-13 22:59N 42°02' E 003°44'816.4
2017-Aug-13 22:30N 41°57' E 003°35'816.8
2017-Aug-13 22:00N 41°52' E 003°27'917.4
2017-Aug-13 21:30N 41°47' E 003°17'4218.3
2017-Aug-13 19:13N 41°22' E 002°33'517.7
2017-Aug-13 18:57N 41°19' E 002°27'918.0
2017-Aug-13 18:27N 41°16' E 002°16'5 0.3
2017-Aug-13 03:05N 41°18' E 002°11'15416.5
2017-Aug-12 17:46N 41°17' E 005°35'37916.1
2017-Aug-11 18:16N 40°35' E 013°54'416.4
2017-Aug-11 18:00N 40°36' E 013°59'816.9
2017-Aug-11 17:30N 40°41' E 014°08'  
Track history (hours):
 
Tides and Currents Weather Stations Pressure Air Temp Water Temp Dewpoint Dewpoint Depression Visibility Wind Speed Wind Dir Waves Ship Positions

Freedom of the Seas

Last reported at 2017-Aug-20 03:16 UTC. Time now 2017-Aug-20 20:49 UTC.
Position N 41°21' E 002°10'.

Length 339 m; draft 9 m.

Type: Passenger vessel. MMSI: 309906000.

Date/timePositionNaut miles runAvg speedWind from/ knotsBaromVisibWave heightAir tempDewpointWater temp
2017-Aug-20 03:16N 41°21' E 002°10'8 7.3
2017-Aug-20 02:12N 41°16' E 002°19'312.6
2017-Aug-20 01:59N 41°16' E 002°22'612.7
2017-Aug-20 01:29N 41°16' E 002°31'613.0
2017-Aug-20 01:00N 41°16' E 002°39'713.2
2017-Aug-20 00:29N 41°17' E 002°48'1117.7
2017-Aug-19 23:52N 41°16' E 003°03'918.2
2017-Aug-19 23:22N 41°17' E 003°15'817.9
2017-Aug-19 22:54N 41°17' E 003°26'717.6
2017-Aug-19 22:30N 41°17' E 003°35'8116.7
2017-Aug-19 17:40N 41°17' E 005°22'415.7
2017-Aug-19 17:26N 41°17' E 005°27'715.7
2017-Aug-19 17:00N 41°17' E 005°36'815.9
2017-Aug-19 16:30N 41°17' E 005°47'1516.2
2017-Aug-19 15:34N 41°17' E 006°07'116.4
2017-Aug-19 15:30N 41°17' E 006°09'816.6
2017-Aug-19 15:00N 41°17' E 006°19'1716.5
2017-Aug-19 14:00N 41°17' E 006°42'816.4
2017-Aug-19 13:30N 41°17' E 006°52'816.5
2017-Aug-19 13:00N 41°17' E 007°04'1516.0
2017-Aug-19 12:03N 41°17' E 007°24'316.2
2017-Aug-19 11:51N 41°18' E 007°28'9116.5
2017-Aug-19 06:20N 41°22' E 009°30'516.9
2017-Aug-19 06:01N 41°22' E 009°37'1216.4
2017-Aug-19 05:16N 41°21' E 009°53'516.8
2017-Aug-19 05:00N 41°20' E 009°59'917.5
2017-Aug-19 04:30N 41°18' E 010°10'917.6
2017-Aug-19 04:00N 41°17' E 010°22'7617.6
2017-Aug-18 23:42N 40°53' E 011°57'817.1
2017-Aug-18 23:12N 40°50' E 012°08'3217.3
2017-Aug-18 21:20N 40°39' E 012°48'1717.0
2017-Aug-18 20:20N 40°34' E 013°09'617.0
2017-Aug-18 20:01N 40°34' E 013°16'816.9
2017-Aug-18 19:31N 40°34' E 013°28'917.1
2017-Aug-18 19:01N 40°34' E 013°39'917.0
2017-Aug-18 18:28N 40°34' E 013°51'816.6
2017-Aug-18 18:01N 40°36' E 014°01'917.1
2017-Aug-18 17:31N 40°42' E 014°09'816.5
2017-Aug-18 17:00N 40°48' E 014°16'2 4.1
2017-Aug-18 16:28N 40°50' E 014°16'0 0.0
2017-Aug-18 15:55N 40°50' E 014°16'0 0.0
2017-Aug-18 15:28N 40°50' E 014°16'0 0.0
2017-Aug-18 14:52N 40°50' E 014°16'0 0.0
2017-Aug-18 13:58N 40°50' E 014°16'0 0.0
2017-Aug-18 13:25N 40°50' E 014°16'0 0.0
2017-Aug-18 12:58N 40°50' E 014°16'0 0.0
2017-Aug-18 12:25N 40°50' E 014°16'0 0.0
2017-Aug-18 11:58N 40°50' E 014°16'0 0.0
2017-Aug-18 11:28N 40°50' E 014°16'0 0.0
2017-Aug-18 10:49N 40°50' E 014°16'0 0.0
2017-Aug-18 10:28N 40°50' E 014°16'0 0.0
2017-Aug-18 09:58N 40°50' E 014°16'0 0.0
2017-Aug-18 09:28N 40°50' E 014°16'0 0.0
2017-Aug-18 08:58N 40°50' E 014°16'0 0.0
2017-Aug-18 08:28N 40°50' E 014°16'0 0.0
2017-Aug-18 07:58N 40°50' E 014°16'0 0.0
2017-Aug-18 07:28N 40°50' E 014°16'0 0.0
2017-Aug-18 06:58N 40°50' E 014°16'0 0.0
2017-Aug-18 06:28N 40°50' E 014°16'0 0.0
2017-Aug-18 05:58N 40°50' E 014°16'0 0.0
2017-Aug-18 05:28N 40°50' E 014°16'0 0.0
2017-Aug-18 04:58N 40°50' E 014°16'0 0.3
2017-Aug-18 04:28N 40°50' E 014°16'1 2.6
2017-Aug-18 04:00N 40°49' E 014°17'712.8
2017-Aug-18 03:28N 40°44' E 014°13'714.0
2017-Aug-18 03:00N 40°39' E 014°07'713.1
2017-Aug-18 02:30N 40°36' E 013°59'713.7
2017-Aug-18 02:00N 40°36' E 013°50'713.8
2017-Aug-18 01:30N 40°38' E 013°41'713.7
2017-Aug-18 01:00N 40°39' E 013°32'714.4
2017-Aug-18 00:30N 40°40' E 013°23'917.7
2017-Aug-18 00:00N 40°42' E 013°12'917.6
2017-Aug-17 23:30N 40°43' E 013°00'7517.3
2017-Aug-17 19:09N 41°37' E 011°50'417.5
2017-Aug-17 18:54N 41°41' E 011°46'46 2.6
2017-Aug-17 01:24N 42°09' E 010°57'717.4
2017-Aug-17 01:00N 42°12' E 010°49'1517.6
2017-Aug-17 00:11N 42°21' E 010°33'319.2
2017-Aug-17 00:00N 42°23' E 010°29'1019.1
2017-Aug-16 23:30N 42°29' E 010°20'1519.3
2017-Aug-16 22:45N 42°40' E 010°07'519.6
2017-Aug-16 22:30N 42°43' E 010°01'1119.1
2017-Aug-16 21:54N 42°49' E 009°48'918.6
2017-Aug-16 21:25N 42°54' E 009°38'1018.9
2017-Aug-16 20:54N 43°04' E 009°35'819.6
2017-Aug-16 20:30N 43°11' E 009°32'1019.1
2017-Aug-16 20:00N 43°21' E 009°31'919.4
2017-Aug-16 19:30N 43°30' E 009°33'1019.3
2017-Aug-16 19:00N 43°39' E 009°39'1019.5
2017-Aug-16 18:30N 43°47' E 009°46'1019.6
2017-Aug-16 18:00N 43°56' E 009°52'815.9
2017-Aug-16 17:31N 44°04' E 009°51'3 5.1
2017-Aug-16 16:58N 44°06' E 009°50'0 0.0
2017-Aug-16 16:28N 44°06' E 009°50'0 0.0
2017-Aug-16 15:58N 44°06' E 009°50'0 0.0
2017-Aug-16 15:28N 44°06' E 009°50'0 0.0
2017-Aug-16 14:58N 44°06' E 009°50'0 0.0
2017-Aug-16 14:28N 44°06' E 009°50'0 0.0
2017-Aug-16 13:55N 44°06' E 009°50'0 0.0
2017-Aug-16 13:28N 44°06' E 009°50'0 0.0
2017-Aug-16 12:58N 44°06' E 009°50'0 0.0
2017-Aug-16 12:28N 44°06' E 009°50'0 0.0
2017-Aug-16 11:58N 44°06' E 009°50'0 0.0
2017-Aug-16 11:22N 44°06' E 009°50'0 0.0
2017-Aug-16 10:58N 44°06' E 009°50'0 0.0
2017-Aug-16 10:25N 44°06' E 009°50'0 0.0
2017-Aug-16 09:58N 44°06' E 009°50'0 0.0
2017-Aug-16 09:28N 44°06' E 009°50'0 0.0
2017-Aug-16 08:58N 44°06' E 009°50'0 0.0
2017-Aug-16 08:28N 44°06' E 009°50'0 0.0
2017-Aug-16 07:58N 44°06' E 009°50'0 0.0
2017-Aug-16 07:28N 44°06' E 009°50'0 0.0
2017-Aug-16 06:58N 44°06' E 009°50'0 0.0
2017-Aug-16 06:28N 44°06' E 009°50'0 0.0
2017-Aug-16 05:58N 44°06' E 009°50'0 0.0
2017-Aug-16 05:28N 44°06' E 009°50'0 0.0
2017-Aug-16 04:58N 44°06' E 009°50'0 1.0
2017-Aug-16 04:30N 44°06' E 009°51'3 5.6
2017-Aug-16 04:00N 44°03' E 009°52'4 8.7
2017-Aug-16 03:30N 43°60' E 009°55'510.5
2017-Aug-16 03:00N 43°57' E 009°48'510.6
2017-Aug-16 02:30N 43°56' E 009°41'610.7
2017-Aug-16 01:59N 43°55' E 009°34'510.6
2017-Aug-16 01:30N 43°54' E 009°27'510.7
2017-Aug-16 01:00N 43°55' E 009°19'510.9
2017-Aug-16 00:30N 43°54' E 009°12'611.0
2017-Aug-16 00:00N 43°52' E 009°05'510.8
2017-Aug-15 23:30N 43°51' E 008°57'510.9
2017-Aug-15 23:00N 43°50' E 008°50'611.1
2017-Aug-15 22:30N 43°49' E 008°42'611.4
2017-Aug-15 22:00N 43°48' E 008°35'611.3
2017-Aug-15 21:30N 43°47' E 008°27'611.1
2017-Aug-15 21:00N 43°46' E 008°19'611.1
2017-Aug-15 20:30N 43°45' E 008°12'611.1
2017-Aug-15 20:00N 43°44' E 008°04'611.1
2017-Aug-15 19:30N 43°43' E 007°57'611.1
2017-Aug-15 19:00N 43°42' E 007°49'611.3
2017-Aug-15 18:30N 43°41' E 007°41'611.2
2017-Aug-15 18:00N 43°40' E 007°34'611.6
2017-Aug-15 17:30N 43°39' E 007°26'5 0.4
2017-Aug-15 04:40N 43°41' E 007°19'1 7.6
2017-Aug-15 04:30N 43°39' E 007°18'710.6
2017-Aug-15 03:52N 43°33' E 007°17'412.0
2017-Aug-15 03:30N 43°29' E 007°16'612.0
2017-Aug-15 03:00N 43°23' E 007°14'611.3
2017-Aug-15 02:30N 43°17' E 007°13'611.4
2017-Aug-15 02:00N 43°12' E 007°10'611.9
2017-Aug-15 01:30N 43°06' E 007°07'611.2
2017-Aug-15 01:00N 43°01' E 007°03'810.8
2017-Aug-15 00:14N 42°56' E 006°55'310.8
2017-Aug-14 23:57N 42°54' E 006°51'511.3
2017-Aug-14 23:30N 42°52' E 006°45'711.1
2017-Aug-14 22:53N 42°50' E 006°36'1311.3
2017-Aug-14 21:45N 42°51' E 006°19'311.2
2017-Aug-14 21:30N 42°52' E 006°15'1311.6
2017-Aug-14 20:24N 42°54' E 005°58'2711.6
2017-Aug-14 18:06N 43°03' E 005°24'111.5
2017-Aug-14 17:59N 43°04' E 005°22'511.5
2017-Aug-14 17:31N 43°06' E 005°15'510.4
2017-Aug-14 17:01N 43°10' E 005°11'612.1
2017-Aug-14 16:31N 43°16' E 005°13'611.8
2017-Aug-14 16:00N 43°21' E 005°18'1 0.1
2017-Aug-14 06:17N 43°21' E 005°19'1 4.1
2017-Aug-14 06:01N 43°21' E 005°18'610.8
2017-Aug-14 05:30N 43°17' E 005°13'714.2
2017-Aug-14 05:00N 43°11' E 005°07'714.1
2017-Aug-14 04:30N 43°06' E 005°01'713.8
2017-Aug-14 04:00N 43°00' E 004°55'713.8
2017-Aug-14 03:31N 42°55' E 004°49'713.6
2017-Aug-14 03:00N 42°50' E 004°42'713.8
2017-Aug-14 02:31N 42°46' E 004°36'713.7
2017-Aug-14 02:00N 42°41' E 004°29'713.4
2017-Aug-14 01:30N 42°36' E 004°23'917.4
2017-Aug-14 01:01N 42°29' E 004°16'917.7
2017-Aug-14 00:30N 42°22' E 004°08'917.9
2017-Aug-14 00:00N 42°15' E 004°00'917.7
2017-Aug-13 23:30N 42°09' E 003°52'917.3
2017-Aug-13 22:59N 42°02' E 003°44'816.4
2017-Aug-13 22:30N 41°57' E 003°35'816.8
2017-Aug-13 22:00N 41°52' E 003°27'917.4
2017-Aug-13 21:30N 41°47' E 003°17'4218.3
2017-Aug-13 19:13N 41°22' E 002°33'517.7
2017-Aug-13 18:57N 41°19' E 002°27'918.0
2017-Aug-13 18:27N 41°16' E 002°16'5 0.3
2017-Aug-13 03:05N 41°18' E 002°11'15416.5
2017-Aug-12 17:46N 41°17' E 005°35'37916.1
2017-Aug-11 18:16N 40°35' E 013°54'416.4
2017-Aug-11 18:00N 40°36' E 013°59'816.9
2017-Aug-11 17:30N 40°41' E 014°08'  

Dump ship's entire track history